createdAt,value
2019-03-13T00:00:56.041Z,5.80
2019-03-13T00:03:25.018Z,5.80
2019-03-13T00:05:54.287Z,5.80
2019-03-13T00:08:23.326Z,5.80
2019-03-13T00:10:52.132Z,5.90
2019-03-13T00:13:20.833Z,5.80
2019-03-13T00:15:50.711Z,5.90
2019-03-13T00:18:19.414Z,5.90
2019-03-13T00:20:48.128Z,5.80
2019-03-13T00:23:17.389Z,5.80
2019-03-13T00:25:48.401Z,5.80
2019-03-13T00:28:17.149Z,5.90
2019-03-13T00:30:46.006Z,5.90
2019-03-13T00:33:14.720Z,5.90
2019-03-13T00:35:43.424Z,5.90
2019-03-13T00:38:12.346Z,5.90
2019-03-13T00:40:41.330Z,5.90
2019-03-13T00:43:10.033Z,5.90
2019-03-13T00:45:39.225Z,5.90
2019-03-13T00:48:07.989Z,5.90
2019-03-13T00:50:37.287Z,5.90
2019-03-13T00:53:06.133Z,5.90
2019-03-13T00:55:34.849Z,5.90
2019-03-13T00:58:03.791Z,5.90
2019-03-13T01:00:57.985Z,5.90
2019-03-13T01:03:40.902Z,5.90
2019-03-13T01:06:14.130Z,5.90
2019-03-13T01:08:42.833Z,5.90
2019-03-13T01:11:11.536Z,5.90
2019-03-13T01:13:40.821Z,5.90
2019-03-13T01:16:09.709Z,5.90
2019-03-13T01:18:38.437Z,5.90
2019-03-13T01:21:07.637Z,5.90
2019-03-13T01:23:37.231Z,5.90
2019-03-13T01:26:06.006Z,5.90
2019-03-13T01:28:34.717Z,5.90
2019-03-13T01:31:32.216Z,5.90
2019-03-13T01:34:33.065Z,5.80
2019-03-13T01:37:01.860Z,5.80
2019-03-13T01:39:30.617Z,5.80
2019-03-13T01:41:59.397Z,5.80
2019-03-13T01:44:28.213Z,5.70
2019-03-13T01:46:56.913Z,5.70
2019-03-13T01:49:25.940Z,5.70
2019-03-13T01:51:54.649Z,5.70
2019-03-13T01:54:23.354Z,5.70
2019-03-13T01:56:52.252Z,5.80
2019-03-13T01:59:21.032Z,5.70
2019-03-13T02:01:49.825Z,5.70
2019-03-13T02:04:18.606Z,5.70
2019-03-13T02:06:47.570Z,5.70
2019-03-13T02:09:16.800Z,5.60
2019-03-13T02:11:45.510Z,5.60
2019-03-13T02:14:14.577Z,5.50
2019-03-13T02:16:43.385Z,5.50
2019-03-13T02:19:12.099Z,5.50
2019-03-13T02:21:41.129Z,5.60
2019-03-13T02:24:10.142Z,5.60
2019-03-13T02:26:38.934Z,5.60
2019-03-13T02:29:07.817Z,5.60
2019-03-13T02:31:36.565Z,5.70
2019-03-13T02:34:05.573Z,5.80
2019-03-13T02:36:34.369Z,5.70
2019-03-13T02:39:04.141Z,5.80
2019-03-13T02:41:32.854Z,5.80
2019-03-13T02:44:01.680Z,5.90
2019-03-13T02:46:30.652Z,5.80
2019-03-13T02:48:59.517Z,5.80
2019-03-13T02:51:28.244Z,5.90
2019-03-13T02:53:56.946Z,5.90
2019-03-13T02:56:25.646Z,6.00
2019-03-13T02:58:55.433Z,6.00
2019-03-13T03:01:29.283Z,5.90
2019-03-13T03:04:01.309Z,6.00
2019-03-13T03:06:30.255Z,6.00
2019-03-13T03:09:00.485Z,6.10
2019-03-13T03:11:29.274Z,6.20
2019-03-13T03:13:58.027Z,6.20
2019-03-13T03:16:27.537Z,6.20
2019-03-13T03:18:56.238Z,6.20
2019-03-13T03:21:24.975Z,6.20
2019-03-13T03:23:53.910Z,6.20
2019-03-13T03:26:22.694Z,6.20
2019-03-13T03:28:51.531Z,6.20
2019-03-13T03:31:20.277Z,6.30
2019-03-13T03:34:04.381Z,6.30
2019-03-13T03:36:33.175Z,6.30
2019-03-13T03:39:02.310Z,6.30
2019-03-13T03:41:31.495Z,6.30
2019-03-13T03:44:00.468Z,6.30
2019-03-13T03:46:30.094Z,6.30
2019-03-13T03:48:58.854Z,6.30
2019-03-13T03:51:28.223Z,6.40
2019-03-13T03:53:56.982Z,6.40
2019-03-13T03:56:25.680Z,6.40
2019-03-13T03:58:54.526Z,6.50
2019-03-13T04:01:23.517Z,6.40
2019-03-13T04:03:52.385Z,6.30
2019-03-13T04:06:21.436Z,6.30
2019-03-13T04:08:50.461Z,6.40
2019-03-13T04:11:19.244Z,6.40
2019-03-13T04:13:47.958Z,6.40
2019-03-13T04:16:16.930Z,6.40
2019-03-13T04:18:45.799Z,6.50
2019-03-13T04:21:14.948Z,6.50
2019-03-13T04:23:43.862Z,6.40
2019-03-13T04:26:13.203Z,6.40
2019-03-13T04:28:42.636Z,6.40
2019-03-13T04:31:11.442Z,6.50
2019-03-13T04:33:40.418Z,6.50
2019-03-13T04:36:09.211Z,6.50
2019-03-13T04:38:37.989Z,6.50
2019-03-13T04:41:06.693Z,6.50
2019-03-13T04:43:35.509Z,6.50
2019-03-13T04:46:04.461Z,6.40
2019-03-13T04:48:33.249Z,6.40
2019-03-13T04:51:02.174Z,6.40
2019-03-13T04:53:30.930Z,6.50
2019-03-13T04:55:59.727Z,6.40
2019-03-13T04:58:28.585Z,6.50
2019-03-13T05:00:57.477Z,6.50
2019-03-13T05:03:26.357Z,6.50
2019-03-13T05:06:07.473Z,6.50
2019-03-13T05:08:49.822Z,6.50
2019-03-13T05:11:18.730Z,6.50
2019-03-13T05:13:49.885Z,6.50
2019-03-13T05:16:19.576Z,6.50
2019-03-13T05:18:48.304Z,6.50
2019-03-13T05:21:17.281Z,6.50
2019-03-13T05:23:46.025Z,6.50
2019-03-13T05:26:15.586Z,6.50
2019-03-13T05:28:44.293Z,6.50
2019-03-13T05:31:13.090Z,6.60
2019-03-13T05:33:41.810Z,6.60
2019-03-13T05:36:10.688Z,6.60
2019-03-13T05:38:39.429Z,6.70
2019-03-13T05:41:08.679Z,6.70
2019-03-13T05:43:37.408Z,6.70
2019-03-13T05:46:06.306Z,6.60
2019-03-13T05:48:35.237Z,6.70
2019-03-13T05:51:04.250Z,6.60
2019-03-13T05:53:32.956Z,6.60
2019-03-13T05:56:01.798Z,6.70
2019-03-13T05:58:30.530Z,6.60
2019-03-13T06:00:59.738Z,6.70
2019-03-13T06:03:29.243Z,6.70
2019-03-13T06:05:57.981Z,6.60
2019-03-13T06:08:26.865Z,6.70
2019-03-13T06:10:55.708Z,6.70
2019-03-13T06:13:24.416Z,6.70
2019-03-13T06:15:53.194Z,6.70
2019-03-13T06:18:22.420Z,6.70
2019-03-13T06:20:51.117Z,6.70
2019-03-13T06:23:19.941Z,6.70
2019-03-13T06:25:48.639Z,6.70
2019-03-13T06:28:18.269Z,6.70
2019-03-13T06:30:47.183Z,6.80
2019-03-13T06:33:16.048Z,6.80
2019-03-13T06:35:44.821Z,6.80
2019-03-13T06:38:13.577Z,6.70
2019-03-13T06:40:42.345Z,6.80
2019-03-13T06:43:11.717Z,6.80
2019-03-13T06:45:40.406Z,6.80
2019-03-13T06:48:09.152Z,6.70
2019-03-13T06:50:37.905Z,6.60
2019-03-13T06:53:06.590Z,6.50
2019-03-13T06:55:35.725Z,6.50
2019-03-13T06:58:04.416Z,6.50
2019-03-13T07:00:59.665Z,6.30
2019-03-13T07:03:41.161Z,6.10
2019-03-13T07:06:27.086Z,6.10
2019-03-13T07:09:14.921Z,6.10
2019-03-13T07:12:18.207Z,6.20
2019-03-13T07:14:57.398Z,6.20
2019-03-13T07:17:35.469Z,6.30
2019-03-13T07:20:23.693Z,6.30
2019-03-13T07:23:01.027Z,6.30
2019-03-13T07:25:47.001Z,6.30
2019-03-13T07:28:33.711Z,6.20
2019-03-13T07:31:30.818Z,6.20
2019-03-13T07:34:15.317Z,6.10
2019-03-13T07:37:02.362Z,6.10
2019-03-13T07:39:44.760Z,6.10
2019-03-13T07:42:33.410Z,6.20
2019-03-13T07:45:21.521Z,6.30
2019-03-13T07:48:05.794Z,6.30
2019-03-13T07:50:41.545Z,6.40
2019-03-13T07:53:32.459Z,6.40
2019-03-13T07:56:13.946Z,6.40
2019-03-13T07:59:04.557Z,6.40
2019-03-13T08:02:01.265Z,6.30
2019-03-13T08:04:52.593Z,6.20
2019-03-13T08:07:47.102Z,6.10
2019-03-13T08:10:35.005Z,6.10
2019-03-13T08:13:29.413Z,6.20
2019-03-13T08:16:15.157Z,6.30
2019-03-13T08:18:59.718Z,6.40
2019-03-13T08:21:46.428Z,6.50
2019-03-13T08:24:31.715Z,6.40
2019-03-13T08:27:18.709Z,6.40
2019-03-13T08:30:05.557Z,6.50
2019-03-13T08:33:05.791Z,6.60
2019-03-13T08:36:12.007Z,6.60
2019-03-13T08:38:58.561Z,6.60
2019-03-13T08:41:52.481Z,6.60
2019-03-13T08:44:51.677Z,6.70
2019-03-13T08:47:57.837Z,6.70
2019-03-13T08:50:48.495Z,6.70
2019-03-13T08:53:22.453Z,6.80
2019-03-13T08:56:02.642Z,6.80
2019-03-13T08:58:42.062Z,6.80
2019-03-13T09:01:29.936Z,6.70
2019-03-13T09:04:16.885Z,6.50
2019-03-13T09:07:03.693Z,6.30
2019-03-13T09:09:43.297Z,6.30
2019-03-13T09:12:18.397Z,6.30
2019-03-13T09:15:08.359Z,6.30
2019-03-13T09:17:50.498Z,6.30
2019-03-13T09:20:47.481Z,6.30
2019-03-13T09:23:22.918Z,6.40
2019-03-13T09:26:16.202Z,6.50
2019-03-13T09:29:07.338Z,6.60
2019-03-13T09:31:54.145Z,6.80
2019-03-13T09:34:48.875Z,6.80
2019-03-13T09:37:33.818Z,6.80
2019-03-13T09:40:26.251Z,6.80
2019-03-13T09:43:17.669Z,6.80
2019-03-13T09:46:05.261Z,6.70
2019-03-13T09:48:55.954Z,6.60
2019-03-13T09:51:43.162Z,6.40
2019-03-13T09:54:35.762Z,6.30
2019-03-13T09:57:36.272Z,6.20
2019-03-13T10:00:23.898Z,6.10
2019-03-13T10:03:11.774Z,6.20
2019-03-13T10:05:58.605Z,6.10
2019-03-13T10:08:55.989Z,6.10
2019-03-13T10:11:46.076Z,6.00
2019-03-13T10:14:39.939Z,6.00
2019-03-13T10:17:36.913Z,5.80
2019-03-13T10:20:31.869Z,5.80
2019-03-13T10:23:18.522Z,5.80
2019-03-13T10:25:55.662Z,5.80
2019-03-13T10:28:34.025Z,5.80
2019-03-13T10:31:27.050Z,5.90
2019-03-13T10:34:05.885Z,6.00
2019-03-13T10:36:42.029Z,6.20
2019-03-13T10:39:24.770Z,6.30
2019-03-13T10:42:11.641Z,6.40
2019-03-13T10:44:47.533Z,6.50
2019-03-13T10:47:41.685Z,6.50
2019-03-13T10:50:39.209Z,6.50
2019-03-13T10:53:39.037Z,6.60
2019-03-13T10:56:20.919Z,6.60
2019-03-13T10:59:03.904Z,6.70
2019-03-13T11:01:55.096Z,6.80
2019-03-13T11:04:44.903Z,6.80
2019-03-13T11:07:28.537Z,6.80
2019-03-13T11:10:06.566Z,6.80
2019-03-13T11:12:48.535Z,6.70
2019-03-13T11:15:23.046Z,6.70
2019-03-13T11:18:00.713Z,6.80
2019-03-13T11:20:48.518Z,6.90
2019-03-13T11:23:43.039Z,6.90
2019-03-13T11:26:19.425Z,6.90
2019-03-13T11:29:12.219Z,6.90
2019-03-13T11:31:58.773Z,6.90
2019-03-13T11:34:34.046Z,6.90
2019-03-13T11:37:17.217Z,7.00
2019-03-13T11:40:08.145Z,7.00
2019-03-13T11:42:46.281Z,7.00
2019-03-13T11:45:34.536Z,7.00
2019-03-13T11:48:25.733Z,7.00
2019-03-13T11:51:16.943Z,7.00
2019-03-13T11:54:14.076Z,7.00
2019-03-13T11:57:00.671Z,7.00
2019-03-13T12:00:04.026Z,7.00
2019-03-13T12:03:00.893Z,7.00
2019-03-13T12:05:52.024Z,6.90
2019-03-13T12:08:42.376Z,6.90
2019-03-13T12:11:18.282Z,7.00
2019-03-13T12:14:05.251Z,7.00
2019-03-13T12:16:52.028Z,7.00
2019-03-13T12:19:40.450Z,7.00
2019-03-13T12:22:40.412Z,7.10
2019-03-13T12:25:20.681Z,7.00
2019-03-13T12:27:57.075Z,7.00
2019-03-13T12:30:51.405Z,7.00
2019-03-13T12:33:38.986Z,7.00
2019-03-13T12:36:45.257Z,6.90
2019-03-13T12:39:31.691Z,6.70
2019-03-13T12:42:22.669Z,6.60
2019-03-13T12:45:03.402Z,6.60
2019-03-13T12:47:40.717Z,6.50
2019-03-13T12:50:25.545Z,6.30
2019-03-13T12:53:02.301Z,6.30
2019-03-13T12:56:05.801Z,6.40
2019-03-13T12:58:44.353Z,6.40
2019-03-13T13:01:39.030Z,6.30
2019-03-13T13:04:25.865Z,6.30
2019-03-13T13:07:03.054Z,6.20
2019-03-13T13:09:59.326Z,6.20
2019-03-13T13:12:51.929Z,6.20
2019-03-13T13:15:39.833Z,6.10
2019-03-13T13:18:23.281Z,6.10
2019-03-13T13:20:52.321Z,6.20
2019-03-13T13:23:21.149Z,6.20
2019-03-13T13:25:50.350Z,6.30
2019-03-13T13:28:19.098Z,6.30
2019-03-13T13:30:47.878Z,6.30
2019-03-13T13:33:16.581Z,6.30
2019-03-13T13:35:45.348Z,6.30
2019-03-13T13:38:14.034Z,6.40
2019-03-13T13:40:42.833Z,6.50
2019-03-13T13:43:11.551Z,6.60
2019-03-13T13:45:45.893Z,6.60
2019-03-13T13:48:14.678Z,6.60
2019-03-13T13:50:43.377Z,6.70
2019-03-13T13:53:12.250Z,6.60
2019-03-13T13:55:41.089Z,6.70
2019-03-13T13:58:09.778Z,6.70
2019-03-13T14:00:38.934Z,6.80
2019-03-13T14:03:07.875Z,6.70
2019-03-13T14:05:36.580Z,6.70
2019-03-13T14:08:05.354Z,6.70
2019-03-13T14:10:34.115Z,6.60
2019-03-13T14:13:03.754Z,6.60
2019-03-13T14:15:32.446Z,6.60
2019-03-13T14:18:01.160Z,6.50
2019-03-13T14:20:29.990Z,6.50
2019-03-13T14:22:59.363Z,6.50
2019-03-13T14:25:28.322Z,6.50
2019-03-13T14:27:57.106Z,6.50
2019-03-13T14:30:25.997Z,6.50
2019-03-13T14:32:54.689Z,6.50
2019-03-13T14:35:23.414Z,6.50
2019-03-13T14:37:52.090Z,6.50
2019-03-13T14:40:20.970Z,6.50
2019-03-13T14:42:49.793Z,6.50
2019-03-13T14:45:18.940Z,6.60
2019-03-13T14:47:47.758Z,6.60
2019-03-13T14:50:16.588Z,6.60
2019-03-13T14:52:45.282Z,6.60
2019-03-13T14:55:14.281Z,6.60
2019-03-13T14:57:42.961Z,6.60
2019-03-13T15:00:15.229Z,6.60
2019-03-13T15:02:44.104Z,6.60
2019-03-13T15:05:13.577Z,6.60
2019-03-13T15:07:42.567Z,6.50
2019-03-13T15:10:13.891Z,6.50
2019-03-13T15:12:43.161Z,6.50
2019-03-13T15:15:12.525Z,6.50
2019-03-13T15:17:41.228Z,6.50
2019-03-13T15:20:13.896Z,6.60
2019-03-13T15:22:42.741Z,6.50
2019-03-13T15:25:12.364Z,6.50
2019-03-13T15:27:41.137Z,6.60
2019-03-13T15:30:15.511Z,6.70
2019-03-13T15:32:44.273Z,6.70
2019-03-13T15:35:13.232Z,6.70
2019-03-13T15:37:41.987Z,6.80
2019-03-13T15:40:13.701Z,6.80
2019-03-13T15:42:42.618Z,6.80
2019-03-13T15:45:13.565Z,6.70
2019-03-13T15:47:43.097Z,6.70
2019-03-13T15:50:12.799Z,6.80
2019-03-13T15:52:41.621Z,6.80
2019-03-13T15:55:12.966Z,6.80
2019-03-13T15:57:41.959Z,6.80
2019-03-13T16:00:18.471Z,6.80
2019-03-13T16:02:47.542Z,6.80
2019-03-13T16:05:16.470Z,6.80
2019-03-13T16:07:45.270Z,6.80
2019-03-13T16:10:14.168Z,6.90
2019-03-13T16:12:42.840Z,6.80
2019-03-13T16:15:14.611Z,6.80
2019-03-13T16:17:43.433Z,6.70
2019-03-13T16:20:13.001Z,6.70
2019-03-13T16:22:44.725Z,6.70
2019-03-13T16:25:13.786Z,6.70
2019-03-13T16:27:42.617Z,6.70
2019-03-13T16:30:15.253Z,6.70
2019-03-13T16:32:44.484Z,6.70
2019-03-13T16:35:13.333Z,6.70
2019-03-13T16:37:42.431Z,6.70
2019-03-13T16:40:13.047Z,6.70
2019-03-13T16:42:42.237Z,6.70
2019-03-13T16:45:13.627Z,6.60
2019-03-13T16:47:44.967Z,6.60
2019-03-13T16:50:15.054Z,6.60
2019-03-13T16:52:43.840Z,6.60
2019-03-13T16:55:16.198Z,6.60
2019-03-13T16:57:44.953Z,6.60
2019-03-13T17:00:20.021Z,6.60
2019-03-13T17:02:48.863Z,6.60
2019-03-13T17:05:17.954Z,6.60
2019-03-13T17:07:49.667Z,6.60
2019-03-13T17:10:18.661Z,6.60
2019-03-13T17:12:47.629Z,6.60
2019-03-13T17:15:19.006Z,6.50
2019-03-13T17:17:48.043Z,6.60
2019-03-13T17:20:21.631Z,6.50
2019-03-13T17:22:50.988Z,6.50
2019-03-13T17:25:20.031Z,6.50
2019-03-13T17:27:49.599Z,6.50
2019-03-13T17:30:24.452Z,6.50
2019-03-13T17:32:53.594Z,6.50
2019-03-13T17:42:12.096Z,6.40
2019-03-13T17:44:41.004Z,6.30
2019-03-13T17:47:09.757Z,6.40
2019-03-13T17:49:38.451Z,6.40
2019-03-13T17:52:07.634Z,6.40
2019-03-13T17:54:36.384Z,6.40
2019-03-13T17:57:05.292Z,6.30
2019-03-13T17:59:34.154Z,6.40
2019-03-13T18:02:03.188Z,6.40
2019-03-13T18:04:31.884Z,6.40
2019-03-13T18:07:01.173Z,6.40
2019-03-13T18:09:29.971Z,6.40
2019-03-13T18:11:58.820Z,6.40
2019-03-13T18:14:31.792Z,6.40
2019-03-13T18:17:33.598Z,6.40
2019-03-13T19:09:24.521Z,26.70
2019-03-13T19:11:54.023Z,22.00
2019-03-13T19:15:31.315Z,20.30
2019-03-13T19:18:01.295Z,11.40
2019-03-13T19:20:31.212Z,8.00
2019-03-13T19:23:00.708Z,7.20
2019-03-13T19:25:29.965Z,6.90
2019-03-13T19:27:59.272Z,6.80
2019-03-13T19:30:37.605Z,6.70
2019-03-13T19:33:05.663Z,6.70
2019-03-13T19:35:34.943Z,6.70
2019-03-13T19:38:11.311Z,6.70
2019-03-13T19:40:40.706Z,6.60
2019-03-13T19:43:09.952Z,6.60
2019-03-13T19:45:46.719Z,6.60
2019-03-13T19:48:15.955Z,6.70
2019-03-13T19:50:45.457Z,6.70
2019-03-13T19:53:14.696Z,6.70
2019-03-13T19:55:43.931Z,6.70
2019-03-13T19:58:13.779Z,6.80
2019-03-13T20:00:43.465Z,6.80
2019-03-13T20:03:17.839Z,6.80
2019-03-13T20:05:47.383Z,6.70
2019-03-13T20:08:16.688Z,6.80
2019-03-13T20:10:45.969Z,6.70
2019-03-13T20:13:15.900Z,6.80
2019-03-13T20:15:45.444Z,6.80
2019-03-13T20:18:14.747Z,6.80
2019-03-13T20:20:44.197Z,6.80
2019-03-13T20:23:17.184Z,6.80
2019-03-13T20:25:46.419Z,6.90
2019-03-13T20:28:15.968Z,6.90
2019-03-13T20:30:45.582Z,6.90
2019-03-13T20:33:14.985Z,6.80
2019-03-13T20:35:44.620Z,6.80
2019-03-13T20:38:13.850Z,6.80
2019-03-13T20:40:43.298Z,6.90
2019-03-13T20:43:12.596Z,6.80
2019-03-13T20:45:42.308Z,6.80
2019-03-13T20:48:13.034Z,6.80
2019-03-13T20:50:42.267Z,6.80
2019-03-13T20:53:11.661Z,6.90
2019-03-13T20:55:41.141Z,6.90
2019-03-13T20:58:10.392Z,6.80
2019-03-13T21:00:39.732Z,6.80
2019-03-13T21:03:09.242Z,6.90
2019-03-13T21:05:38.644Z,6.80
2019-03-13T21:08:08.022Z,6.80
2019-03-13T21:10:37.557Z,6.80
2019-03-13T21:13:06.998Z,6.80
2019-03-13T21:15:36.550Z,6.70
2019-03-13T21:18:05.815Z,6.70
2019-03-13T21:20:36.168Z,6.60
2019-03-13T21:23:05.406Z,6.60
2019-03-13T21:25:36.202Z,6.50
